Time;durP1;ratioP1;P1;durP2;ratioP2;P2;SDS_P1;SDS_P2;PMS_P1;PMS_P2;Temp;Humidity;BMP_temperature;BMP_pressure;BME280_temperature;BME280_humidity;BME280_pressure;Samples;Min_cycle;Max_cycle;Signal;HPM_P1;HPM_P2
2021/08/10 08:07:33;;;;;;;5.25;4.07;;;16.20;99.90;;;;;;5091031;28;20575;-72
2021/08/10 08:09:58;;;;;;;6.47;4.72;;;16.20;99.90;;;;;;5089716;28;20682;-72
2021/08/10 08:12:24;;;;;;;4.65;4.32;;;16.30;99.90;;;;;;5090856;28;20168;-72
2021/08/10 08:14:49;;;;;;;4.10;3.78;;;16.20;99.90;;;;;;5090863;28;20247;-72
2021/08/10 08:17:15;;;;;;;4.53;4.10;;;16.40;99.90;;;;;;5090866;28;20243;-72
2021/08/10 08:19:40;;;;;;;6.10;4.68;;;16.50;99.90;;;;;;5090597;28;20191;-72
2021/08/10 08:22:07;;;;;;;3.78;3.55;;;16.60;99.90;;;;;;5089383;28;20270;-72
2021/08/10 08:24:32;;;;;;;4.50;4.07;;;16.60;99.90;;;;;;5089416;28;20267;-72
2021/08/10 08:26:58;;;;;;;7.28;4.63;;;16.60;99.90;;;;;;5090625;28;20279;-72
2021/08/10 08:29:23;;;;;;;4.50;4.00;;;16.70;99.90;;;;;;5090404;28;20175;-73
2021/08/10 08:31:49;;;;;;;5.78;3.97;;;16.70;99.90;;;;;;5090586;28;20199;-73
2021/08/10 08:34:15;;;;;;;3.72;3.42;;;16.80;99.90;;;;;;5090407;28;20156;-73
2021/08/10 08:36:42;;;;;;;4.85;3.22;;;16.80;99.90;;;;;;5090523;28;20168;-73
2021/08/10 08:39:08;;;;;;;3.88;3.53;;;16.80;99.90;;;;;;5090279;28;20172;-73
2021/08/10 08:41:34;;;;;;;3.13;2.92;;;16.80;99.90;;;;;;5090210;28;20191;-73
2021/08/10 08:44:00;;;;;;;5.25;3.10;;;16.90;99.90;;;;;;5090174;28;20168;-73
2021/08/10 08:46:26;;;;;;;6.68;3.42;;;17.00;99.90;;;;;;5088877;28;20212;-73
2021/08/10 08:48:54;;;;;;;3.88;3.60;;;17.00;99.90;;;;;;5088637;28;20262;-73
2021/08/10 08:51:24;;;;;;;3.65;3.45;;;17.10;99.90;;;;;;5090199;28;20167;-73
2021/08/10 08:53:52;;;;;;;3.55;3.28;;;17.20;99.90;;;;;;5090172;28;20174;-73
2021/08/10 08:56:22;;;;;;;3.95;3.60;;;17.20;99.90;;;;;;5090146;28;20392;-73
2021/08/10 08:58:51;;;;;;;5.10;4.55;;;17.30;99.90;;;;;;5090251;28;20173;-73
2021/08/10 09:01:17;;;;;;;4.72;3.75;;;17.40;99.90;;;;;;5089648;28;20163;-73
2021/08/10 09:03:42;;;;;;;5.45;4.20;;;17.50;99.90;;;;;;5088685;28;20673;-73
2021/08/10 09:06:08;;;;;;;4.32;3.92;;;17.70;99.90;;;;;;5089618;28;20220;-73
2021/08/10 09:08:39;;;;;;;3.75;3.45;;;17.80;99.90;;;;;;5089764;28;20711;-73
2021/08/10 09:11:08;;;;;;;5.22;3.85;;;17.90;99.90;;;;;;5088502;28;20163;-73
2021/08/10 09:13:38;;;;;;;4.28;3.42;;;17.90;99.90;;;;;;5089484;28;20174;-73
2021/08/10 09:16:06;;;;;;;6.38;4.60;;;18.10;99.90;;;;;;5089705;28;20164;-73
2021/08/10 09:18:38;;;;;;;5.90;4.20;;;18.30;99.90;;;;;;5077991;28;20660;-73
2021/08/10 09:21:13;;;;;;;6.97;4.60;;;18.40;99.90;;;;;;5076117;28;20182;-73
2021/08/10 09:23:50;;;;;;;4.15;3.75;;;18.50;99.90;;;;;;5076015;28;20202;-73
2021/08/10 09:26:19;;;;;;;4.93;4.53;;;18.50;99.90;;;;;;5075776;28;20249;-73
2021/08/10 09:28:46;;;;;;;4.53;4.13;;;18.50;99.90;;;;;;5075998;28;20167;-74
2021/08/10 09:31:30;;;;;;;4.90;4.35;;;18.40;99.90;;;;;;5075925;28;20160;-74
2021/08/10 09:33:57;;;;;;;5.03;4.63;;;18.50;99.90;;;;;;5075897;28;20181;-74
2021/08/10 09:36:24;;;;;;;4.97;4.55;;;18.50;99.90;;;;;;5075854;28;20207;-74
2021/08/10 09:38:50;;;;;;;5.03;4.72;;;18.50;99.90;;;;;;5075801;28;20214;-74
2021/08/10 09:41:15;;;;;;;7.05;4.95;;;18.70;99.90;;;;;;5075611;28;20201;-74
2021/08/10 09:43:41;;;;;;;6.07;5.28;;;18.80;99.90;;;;;;5075770;28;20246;-74
2021/08/10 09:46:15;;;;;;;5.35;4.78;;;18.80;99.90;;;;;;5075629;28;20195;-74
2021/08/10 09:48:50;;;;;;;5.25;4.80;;;18.80;99.90;;;;;;5075592;28;20172;-74
2021/08/10 09:51:18;;;;;;;5.60;4.75;;;18.70;99.90;;;;;;5075510;28;20167;-74
2021/08/10 09:54:01;;;;;;;5.07;4.72;;;18.50;99.90;;;;;;5075548;28;20168;-74
2021/08/10 09:56:53;;;;;;;5.13;4.72;;;18.40;99.90;;;;;;5074247;28;20171;-74
2021/08/10 09:59:43;;;;;;;4.63;4.32;;;18.20;99.90;;;;;;5075463;28;20176;-73
2021/08/10 10:02:23;;;;;;;7.05;4.88;;;17.80;99.90;;;;;;5074948;28;20181;-73
2021/08/10 10:04:50;;;;;;;4.72;4.43;;;17.80;99.90;;;;;;5075333;28;20174;-73
2021/08/10 10:07:16;;;;;;;5.05;4.65;;;17.70;99.90;;;;;;5075016;28;20220;-73
2021/08/10 10:09:42;;;;;;;6.22;4.70;;;17.80;99.90;;;;;;5075201;28;20168;-73
2021/08/10 10:12:08;;;;;;;7.20;5.53;;;17.90;99.90;;;;;;5075123;28;20168;-73
2021/08/10 10:14:34;;;;;;;4.53;4.22;;;18.00;99.90;;;;;;5073842;28;20172;-73
2021/08/10 10:17:02;;;;;;;6.85;5.65;;;18.10;99.90;;;;;;5075074;28;20172;-73
2021/08/10 10:19:29;;;;;;;5.80;5.40;;;18.10;99.90;;;;;;5074982;28;20192;-73
2021/08/10 10:21:57;;;;;;;7.10;6.50;;;18.20;99.90;;;;;;5074989;28;20262;-73
2021/08/10 10:24:25;;;;;;;8.52;6.00;;;18.30;99.90;;;;;;5074999;28;20659;-73
2021/08/10 10:27:02;;;;;;;10.30;5.85;;;18.50;99.90;;;;;;5073354;28;20564;-73
2021/08/10 10:29:28;;;;;;;6.47;5.95;;;18.50;99.90;;;;;;5073749;28;20305;-73
2021/08/10 10:31:54;;;;;;;7.10;6.30;;;18.50;99.90;;;;;;5074718;28;20164;-74
2021/08/10 10:34:20;;;;;;;6.53;5.35;;;18.50;99.90;;;;;;5074731;28;20175;-74
2021/08/10 10:36:47;;;;;;;7.40;5.28;;;18.60;99.90;;;;;;5074683;28;20195;-74
2021/08/10 10:39:19;;;;;;;5.45;5.05;;;18.90;99.90;;;;;;5074587;28;20170;-73
2021/08/10 10:41:46;;;;;;;6.13;5.50;;;19.10;99.90;;;;;;5074558;28;20172;-73
2021/08/10 10:44:12;;;;;;;6.03;5.53;;;19.30;99.90;;;;;;5073287;28;20210;-73
2021/08/10 10:46:40;;;;;;;6.13;5.63;;;19.40;99.90;;;;;;5074384;28;20235;-73
2021/08/10 10:49:07;;;;;;;5.95;5.47;;;19.40;99.90;;;;;;5074400;28;20164;-73
2021/08/10 10:51:38;;;;;;;5.57;5.15;;;19.40;99.90;;;;;;5074205;28;20160;-73
2021/08/10 10:54:28;;;;;;;6.88;6.38;;;19.40;99.90;;;;;;5073053;28;20170;-73
2021/08/10 10:56:55;;;;;;;6.40;5.20;;;19.50;99.90;;;;;;5074297;28;20164;-73
2021/08/10 10:59:27;;;;;;;7.60;5.47;;;19.40;99.90;;;;;;5075091;28;20699;-74
2021/08/10 11:02:12;;;;;;;6.13;5.53;;;19.40;99.90;;;;;;5074225;28;20662;-74
2021/08/10 11:04:38;;;;;;;7.13;5.55;;;19.50;99.90;;;;;;5074075;28;20172;-74
2021/08/10 11:07:33;;;;;;;5.22;4.72;;;19.60;99.90;;;;;;5073866;28;20223;-74
2021/08/10 11:09:59;;;;;;;5.05;4.75;;;19.50;99.90;;;;;;5074003;28;20168;-74
2021/08/10 11:12:46;;;;;;;6.60;5.20;;;19.60;99.90;;;;;;5073930;28;20260;-74
2021/08/10 11:15:13;;;;;;;5.57;4.90;;;19.70;99.90;;;;;;5074020;28;20179;-74
2021/08/10 11:17:39;;;;;;;5.57;4.90;;;19.70;99.90;;;;;;5073753;28;20168;-74
2021/08/10 11:20:27;;;;;;;4.97;4.68;;;19.70;99.90;;;;;;5073882;28;20168;-74
2021/08/10 11:23:19;;;;;;;5.82;4.88;;;19.70;99.90;;;;;;5073772;28;20552;-74
2021/08/10 11:25:52;;;;;;;5.18;4.68;;;19.70;99.90;;;;;;5072814;28;20204;-74
2021/08/10 11:28:25;;;;;;;4.82;3.95;;;19.70;99.90;;;;;;5072538;28;20170;-74
2021/08/10 11:30:52;;;;;;;4.40;3.58;;;19.50;99.90;;;;;;5073703;28;20625;-74
2021/08/10 11:33:36;;;;;;;4.28;3.88;;;19.40;99.90;;;;;;5073595;28;20168;-74
2021/08/10 11:36:14;;;;;;;4.25;3.75;;;19.30;99.90;;;;;;5073510;28;20258;-74
2021/08/10 11:38:51;;;;;;;4.93;4.55;;;19.10;99.90;;;;;;5071949;28;20628;-74
2021/08/10 11:41:19;;;;;;;4.35;4.05;;;19.00;99.90;;;;;;5073299;28;20508;-74
2021/08/10 11:43:49;;;;;;;8.57;4.90;;;18.90;99.90;;;;;;5073552;28;20309;-74
2021/08/10 11:46:14;;;;;;;4.15;3.80;;;19.00;99.90;;;;;;5073479;28;20200;-71
2021/08/10 11:48:49;;;;;;;4.20;3.67;;;19.10;99.90;;;;;;5073486;28;20548;-72
2021/08/10 11:51:38;;;;;;;3.22;3.03;;;19.20;99.90;;;;;;5073212;28;20250;-72
2021/08/10 11:54:16;;;;;;;6.57;3.83;;;19.40;99.90;;;;;;5073399;28;20179;-71
2021/08/10 11:56:50;;;;;;;4.65;4.05;;;19.50;99.90;;;;;;5073447;28;20187;-72
2021/08/10 11:59:25;;;;;;;6.13;4.28;;;19.70;99.90;;;;;;5073469;28;20224;-71
2021/08/10 12:01:55;;;;;;;4.93;4.22;;;19.80;99.90;;;;;;5072020;28;20503;-72
2021/08/10 12:04:26;;;;;;;7.80;4.45;;;19.90;99.90;;;;;;5072189;28;20171;-72
2021/08/10 12:06:54;;;;;;;4.68;4.35;;;20.00;99.90;;;;;;5073195;28;20223;-72
2021/08/10 12:09:22;;;;;;;4.00;3.70;;;20.10;99.90;;;;;;5073493;28;20738;-72
2021/08/10 12:11:56;;;;;;;4.50;3.75;;;20.10;99.90;;;;;;5072191;28;20168;-72
2021/08/10 12:14:23;;;;;;;7.25;3.80;;;20.10;99.90;;;;;;5073396;28;20163;-72
2021/08/10 12:17:10;;;;;;;3.70;3.47;;;20.00;99.90;;;;;;5073237;28;20164;-72
2021/08/10 12:19:48;;;;;;;3.72;3.47;;;20.10;99.90;;;;;;5073103;28;20192;-72
2021/08/10 12:22:14;;;;;;;5.40;3.40;;;20.10;99.90;;;;;;5071942;28;20172;-72
2021/08/10 12:24:40;;;;;;;4.07;3.83;;;20.10;99.90;;;;;;5073181;28;20639;-72
2021/08/10 12:27:08;;;;;;;3.40;3.10;;;20.10;99.90;;;;;;5073046;28;20600;-72
2021/08/10 12:30:04;;;;;;;4.32;3.58;;;20.00;99.90;;;;;;5071302;28;20168;-72
2021/08/10 12:32:31;;;;;;;6.38;3.08;;;20.00;99.90;;;;;;5072645;28;20184;-72
2021/08/10 12:35:13;;;;;;;4.05;3.67;;;20.10;99.90;;;;;;5072850;28;20164;-72
2021/08/10 12:37:39;;;;;;;3.45;3.25;;;20.30;99.90;;;;;;5073014;28;20192;-72
2021/08/10 12:40:06;;;;;;;3.22;3.03;;;20.40;99.90;;;;;;5072936;28;20204;-72
2021/08/10 12:42:37;;;;;;;6.22;3.40;;;20.50;99.90;;;;;;5071698;28;20172;-72
2021/08/10 12:45:03;;;;;;;3.40;3.20;;;20.40;99.90;;;;;;5073185;28;20514;-71
2021/08/10 12:47:39;;;;;;;3.97;3.67;;;20.30;99.90;;;;;;5072493;28;20202;-72
2021/08/10 12:50:23;;;;;;;6.35;3.75;;;20.30;99.90;;;;;;5072883;28;20168;-71
2021/08/10 12:52:49;;;;;;;4.97;3.50;;;20.40;99.90;;;;;;5074101;28;20217;-71
2021/08/10 12:55:15;;;;;;;4.25;3.60;;;20.50;99.90;;;;;;5076608;28;20557;-71
2021/08/10 12:57:40;;;;;;;6.00;3.40;;;20.70;99.90;;;;;;5076568;28;20203;-72
2021/08/10 13:00:16;;;;;;;3.00;2.88;;;20.80;99.90;;;;;;5075285;28;20258;-72
2021/08/10 13:02:44;;;;;;;3.72;3.40;;;20.80;99.90;;;;;;5075105;28;20609;-71
2021/08/10 13:05:12;;;;;;;4.13;3.72;;;20.80;99.90;;;;;;5076233;28;20555;-72
2021/08/10 13:07:39;;;;;;;5.07;3.63;;;20.80;99.90;;;;;;5076416;28;20172;-72
2021/08/10 13:10:07;;;;;;;3.53;3.17;;;20.60;99.90;;;;;;5076284;28;20167;-72
2021/08/10 13:12:33;;;;;;;3.33;3.10;;;20.50;99.90;;;;;;5076164;28;20297;-72
2021/08/10 13:15:09;;;;;;;4.00;3.08;;;20.50;99.90;;;;;;5076063;28;20199;-72
2021/08/10 13:17:44;;;;;;;2.92;2.72;;;20.70;99.90;;;;;;5076417;28;20183;-72
2021/08/10 13:20:20;;;;;;;2.42;2.22;;;21.20;99.90;;;;;;5075123;28;20167;-72
2021/08/10 13:22:59;;;;;;;3.78;2.88;;;21.50;99.90;;;;;;5076253;28;20174;-71
2021/08/10 13:25:30;;;;;;;2.72;2.53;;;21.70;99.90;;;;;;5076220;28;20226;-72
2021/08/10 13:28:10;;;;;;;3.58;2.30;;;21.70;99.90;;;;;;5076188;28;20639;-72
2021/08/10 13:30:36;;;;;;;2.85;2.65;;;21.70;99.90;;;;;;5076289;28;20598;-72
2021/08/10 13:33:09;;;;;;;2.17;2.08;;;22.00;99.90;;;;;;5076185;28;20528;-72
2021/08/10 13:35:37;;;;;;;2.30;2.20;;;22.10;99.90;;;;;;5074699;28;20675;-72
2021/08/10 13:38:04;;;;;;;3.60;3.33;;;22.00;99.90;;;;;;5074208;28;20541;-72
2021/08/10 13:40:32;;;;;;;2.67;2.47;;;22.00;99.90;;;;;;5074545;28;20182;-72
2021/08/10 13:42:57;;;;;;;2.78;2.40;;;21.90;99.90;;;;;;5073364;28;20167;-71
2021/08/10 13:45:24;;;;;;;2.65;2.55;;;22.00;99.90;;;;;;5074854;28;20179;-71
2021/08/10 13:47:53;;;;;;;2.47;2.28;;;21.90;99.90;;;;;;5073761;28;20647;-71
2021/08/10 13:50:19;;;;;;;4.22;2.80;;;21.90;99.90;;;;;;5075638;28;20225;-72
2021/08/10 13:52:46;;;;;;;3.65;2.75;;;22.10;99.90;;;;;;5075420;28;20693;-72
2021/08/10 13:55:12;;;;;;;2.55;2.45;;;22.10;99.90;;;;;;5075430;28;20180;-71
2021/08/10 13:57:37;;;;;;;2.67;2.40;;;22.10;99.90;;;;;;5075537;28;20690;-71
2021/08/10 14:00:04;;;;;;;2.30;2.20;;;22.00;99.90;;;;;;5075476;28;20527;-72
2021/08/10 14:02:30;;;;;;;2.63;2.20;;;21.80;99.90;;;;;;5075483;28;20171;-72
2021/08/10 14:04:56;;;;;;;2.28;2.17;;;21.70;99.90;;;;;;5075351;28;20164;-72
2021/08/10 14:07:22;;;;;;;2.47;2.28;;;21.60;99.90;;;;;;5075363;28;20287;-72
2021/08/10 14:09:49;;;;;;;6.07;2.40;;;21.50;99.90;;;;;;5075368;28;20168;-71
2021/08/10 14:12:14;;;;;;;3.67;2.70;;;21.30;99.90;;;;;;5075082;28;20170;-72
2021/08/10 14:14:40;;;;;;;2.40;2.30;;;21.20;99.90;;;;;;5075220;28;20500;-72
2021/08/10 14:17:06;;;;;;;2.80;2.60;;;21.20;99.90;;;;;;5075136;28;20192;-72
2021/08/10 14:19:32;;;;;;;3.72;2.50;;;21.30;99.90;;;;;;5075219;28;20187;-72
2021/08/10 14:21:58;;;;;;;2.60;2.40;;;21.60;99.90;;;;;;5073535;28;20164;-72
2021/08/10 14:24:24;;;;;;;2.85;2.65;;;22.00;99.90;;;;;;5074915;28;20591;-70
2021/08/10 14:26:50;;;;;;;2.95;2.72;;;22.30;99.90;;;;;;5073456;28;20198;-71
2021/08/10 14:29:15;;;;;;;2.65;2.45;;;22.50;99.90;;;;;;5073548;28;20286;-71
2021/08/10 14:31:41;;;;;;;2.65;2.45;;;22.50;99.90;;;;;;5074905;28;20237;-71
2021/08/10 14:34:06;;;;;;;2.65;2.45;;;22.40;99.90;;;;;;5075026;28;20179;-71
2021/08/10 14:36:32;;;;;;;2.65;2.33;;;22.30;99.90;;;;;;5074957;28;20199;-71
2021/08/10 14:38:58;;;;;;;2.35;2.25;;;22.20;99.90;;;;;;5075674;28;20144;-71
2021/08/10 14:41:24;;;;;;;2.80;2.60;;;22.10;99.90;;;;;;5075096;28;20503;-71
2021/08/10 14:43:50;;;;;;;2.58;2.38;;;21.90;99.90;;;;;;5074636;28;20168;-71
2021/08/10 14:46:16;;;;;;;2.85;2.60;;;21.80;99.90;;;;;;5074361;28;20168;-72
2021/08/10 14:48:41;;;;;;;5.60;2.60;;;21.90;99.90;;;;;;5074248;28;20590;-72
2021/08/10 14:51:07;;;;;;;3.15;2.88;;;22.10;99.90;;;;;;5074142;28;20250;-71
2021/08/10 14:53:32;;;;;;;2.65;2.45;;;22.20;99.90;;;;;;5074328;28;20204;-70
2021/08/10 14:55:58;;;;;;;2.55;2.35;;;22.10;99.90;;;;;;5074197;28;20199;-71
2021/08/10 14:58:23;;;;;;;2.80;2.33;;;21.90;99.90;;;;;;5074038;28;20172;-72
2021/08/10 15:00:49;;;;;;;3.85;2.90;;;21.70;99.90;;;;;;5072981;28;20174;-72
2021/08/10 15:03:15;;;;;;;2.38;2.22;;;21.40;99.90;;;;;;5074163;28;20170;-71
2021/08/10 15:05:45;;;;;;;3.40;2.92;;;21.00;99.90;;;;;;5074053;28;20230;-71
2021/08/10 15:08:14;;;;;;;3.85;2.85;;;20.60;99.90;;;;;;5074249;28;20156;-72
2021/08/10 15:10:40;;;;;;;3.33;3.03;;;20.40;99.90;;;;;;5073754;28;20751;-71
2021/08/10 15:13:08;;;;;;;3.15;2.95;;;20.30;99.90;;;;;;5074034;28;20217;-72
2021/08/10 15:15:34;;;;;;;3.63;2.78;;;20.10;99.90;;;;;;5073381;28;20175;-71
2021/08/10 15:17:59;;;;;;;2.90;2.70;;;19.80;99.90;;;;;;5073894;28;20541;-72
2021/08/10 15:20:25;;;;;;;3.22;3.03;;;19.70;99.90;;;;;;5073924;28;20168;-72
2021/08/10 15:22:51;;;;;;;2.92;2.65;;;19.60;99.90;;;;;;5073879;28;20203;-72
2021/08/10 15:25:16;;;;;;;2.90;2.70;;;19.50;99.90;;;;;;5073800;28;20250;-72
2021/08/10 15:27:43;;;;;;;4.15;3.33;;;19.50;99.90;;;;;;5073747;28;20184;-72
2021/08/10 15:30:16;;;;;;;3.67;3.13;;;19.50;99.90;;;;;;5073593;28;20164;-72
2021/08/10 15:32:44;;;;;;;3.92;3.03;;;19.40;99.90;;;;;;5073708;28;20238;-72
2021/08/10 15:35:09;;;;;;;3.20;2.90;;;19.40;99.90;;;;;;5073727;28;20199;-71
2021/08/10 15:37:35;;;;;;;4.00;2.92;;;19.40;99.90;;;;;;5073577;28;20734;-72
2021/08/10 15:40:00;;;;;;;2.90;2.70;;;19.50;99.90;;;;;;5072303;28;20225;-69
2021/08/10 15:42:26;;;;;;;3.70;3.40;;;19.50;99.90;;;;;;5072372;28;20544;-69
2021/08/10 15:44:52;;;;;;;3.22;2.90;;;19.60;99.90;;;;;;5073815;28;20164;-69
2021/08/10 15:47:17;;;;;;;3.25;2.97;;;19.80;99.90;;;;;;5073687;28;20221;-69
2021/08/10 15:49:43;;;;;;;2.85;2.65;;;19.80;99.90;;;;;;5072425;28;20175;-69
2021/08/10 15:52:09;;;;;;;2.55;2.45;;;19.80;99.90;;;;;;5073679;28;20179;-69
2021/08/10 15:54:35;;;;;;;2.78;2.67;;;19.70;99.90;;;;;;5072487;28;20176;-69
2021/08/10 15:57:02;;;;;;;3.75;3.45;;;19.70;99.90;;;;;;5072322;28;20199;-69
2021/08/10 15:59:28;;;;;;;3.75;3.42;;;19.50;99.90;;;;;;5073594;28;20259;-69
2021/08/10 16:01:53;;;;;;;3.30;2.75;;;19.40;99.90;;;;;;5073645;28;20196;-69
2021/08/10 16:04:19;;;;;;;2.83;2.63;;;19.40;99.90;;;;;;5073696;28;20167;-69
2021/08/10 16:06:45;;;;;;;3.55;2.90;;;19.50;99.90;;;;;;5073445;28;20703;-69
2021/08/10 16:09:11;;;;;;;4.15;3.80;;;19.50;99.90;;;;;;5073530;28;20171;-69
2021/08/10 16:11:36;;;;;;;6.03;3.50;;;19.60;99.90;;;;;;5073563;28;20484;-69
2021/08/10 16:14:02;;;;;;;4.70;3.08;;;19.60;99.90;;;;;;5073346;28;20180;-69
2021/08/10 16:16:29;;;;;;;7.13;3.10;;;19.70;99.90;;;;;;5073211;28;20637;-69
2021/08/10 16:18:55;;;;;;;3.30;3.10;;;19.90;99.90;;;;;;5073089;28;20211;-69
2021/08/10 16:21:24;;;;;;;3.60;3.40;;;19.90;99.90;;;;;;5071876;28;20191;-69
2021/08/10 16:23:50;;;;;;;4.43;2.97;;;20.00;99.90;;;;;;5071962;28;20597;-69
2021/08/10 16:26:16;;;;;;;3.55;2.58;;;20.00;99.90;;;;;;5073125;28;20207;-69
2021/08/10 16:28:41;;;;;;;4.80;3.15;;;19.90;99.90;;;;;;5076003;28;20675;-69
2021/08/10 16:31:07;;;;;;;3.30;3.00;;;19.70;99.90;;;;;;5075783;28;20179;-69
2021/08/10 16:33:34;;;;;;;3.90;2.90;;;19.60;99.90;;;;;;5077027;28;20621;-69
2021/08/10 16:36:01;;;;;;;2.72;2.53;;;19.50;99.90;;;;;;5076895;28;20257;-69
2021/08/10 16:38:26;;;;;;;3.17;2.97;;;19.40;99.90;;;;;;5076978;28;20167;-69
2021/08/10 16:40:52;;;;;;;2.55;2.42;;;19.40;99.90;;;;;;5075607;28;20267;-68
2021/08/10 16:43:18;;;;;;;3.70;3.08;;;19.30;99.90;;;;;;5076859;28;20156;-68
2021/08/10 16:45:43;;;;;;;3.20;2.67;;;19.30;99.90;;;;;;5076763;28;20172;-71
2021/08/10 16:48:09;;;;;;;3.67;2.70;;;19.10;99.90;;;;;;5075371;28;20210;-71
2021/08/10 16:50:35;;;;;;;3.17;2.92;;;19.00;99.90;;;;;;5075398;28;20175;-71
2021/08/10 16:53:00;;;;;;;4.00;3.30;;;18.90;99.90;;;;;;5076657;28;20172;-71
2021/08/10 16:55:26;;;;;;;4.57;3.25;;;18.80;99.90;;;;;;5075239;28;20656;-71
2021/08/10 16:57:52;;;;;;;3.10;2.80;;;18.80;99.90;;;;;;5076603;28;20295;-71
2021/08/10 17:00:17;;;;;;;3.53;3.33;;;18.70;99.90;;;;;;5076497;28;20527;-71
2021/08/10 17:02:43;;;;;;;3.38;3.08;;;18.70;99.90;;;;;;5076548;28;20173;-71
2021/08/10 17:05:10;;;;;;;3.33;3.13;;;18.70;99.90;;;;;;5076582;28;20171;-71
2021/08/10 17:07:35;;;;;;;3.53;3.22;;;18.60;99.90;;;;;;5076798;28;20167;-71
2021/08/10 17:10:02;;;;;;;4.60;3.45;;;18.60;99.90;;;;;;5076770;28;20168;-71
